Líbí se Vám tento web? Budeme velmi rádi, pokud přidáte hodnocení +1

Seznam meteostanic a jejich METAR

Vyhledat místa podle abecedy:
A B C D E F G H I J K L M N O P Q R S T U V W X Y Z

Filtrovat:

ID stanice:
a/nebo
Název místa (fulltext):
 
Místo (ID)Naposledy načteno 
Zadar (LDZD) 17.01.2018 21:00 UTC Zobrazit METAR
LDZD 172100Z VRB02KT CAVOK 02/M01 Q1009 NOSIG
Zagreb (LDZA) 17.01.2018 21:00 UTC Zobrazit METAR
LDZA 172100Z 21004KT CAVOK M01/M02 Q1008 NOSIG
Zaragoza (LEZG) 17.01.2018 21:00 UTC Zobrazit METAR
LEZG 172100Z 27012KT 9999 FEW045 08/05 Q1027
Zhezkazgan (UAKD) Zatím nenačteno  
Zurich (LSZH) 17.01.2018 20:50 UTC Zobrazit METAR
LSZH 172050Z 22011KT 9999 FEW026 SCT065 BKN170 02/M02 Q1016 TEMPO 2000 SHSNRA
Reklama

Počasí na Váš email

Emaily jsou bez reklamy a bez spamu



Odhlásit newsletter

Reklama


Lunární kalendář

  • 24.01.
  • 31.01.
  • 07.02.
  • 15.02.



Jsme na Google Plus

Reklama
Povinné ručení



Může Vás také zajímat:


Reklama